CSCL Star — VRHM7 — position and weather

sailwx.info

Track history (hours):
 
Tides and Currents Weather Stations Pressure Air Temp Water Temp Dewpoint Dewpoint Depression Visibility Wind Speed Wind Dir Waves Ship Positions

CSCL Star

Last reported at 2017-Oct-16 12:34 UTC. Time now 2017-Oct-16 22:47 UTC.
Position N 37°05' E 003°13'.

Length 366 m; draft 14.5 m.

Type: Ship (hazmat cat A). MMSI: 477963800.

Date/timePositionNaut miles runAvg speedWind from/ knotsBaromVisibWave heightAir tempDewpointWater temp
2017-Oct-16 12:34N 37°05' E 003°13'1318.2
2017-Oct-16 11:51N 37°04' E 002°57'618.1
2017-Oct-16 11:30N 37°02' E 002°50'1318.2
2017-Oct-16 10:48N 36°59' E 002°34'518.2
2017-Oct-16 10:30N 36°58' E 002°28'918.1
2017-Oct-16 10:00N 36°55' E 002°17'918.3
2017-Oct-16 09:30N 36°53' E 002°06'918.3
2017-Oct-16 09:00N 36°51' E 001°55'918.3
2017-Oct-16 08:30N 36°48' E 001°44'918.2
2017-Oct-16 08:00N 36°45' E 001°33'918.1
2017-Oct-16 07:30N 36°43' E 001°22'1017.7
2017-Oct-16 06:56N 36°40' E 001°10'9017.6
2017-Oct-16 01:50N 36°22' W 000°39'717.2
2017-Oct-16 01:27N 36°21' W 000°47'2717.5
2017-Oct-15 23:53N 36°18' W 001°21'17417.6
2017-Oct-15 14:00N 36°00' W 004°55'918.1
2017-Oct-15 13:30N 35°59' W 005°06'918.0
2017-Oct-15 13:00N 35°58' W 005°17'917.8
2017-Oct-15 12:30N 35°57' W 005°28'1117.9
2017-Oct-15 11:55N 35°54' W 005°41'818.1
2017-Oct-15 11:29N 35°54' W 005°50'917.6
2017-Oct-15 11:00N 35°54' W 006°01'917.1
2017-Oct-15 10:30N 35°54' W 006°11'816.9
2017-Oct-15 10:01N 35°56' W 006°21'816.7
2017-Oct-15 09:30N 35°57' W 006°32'816.2
2017-Oct-15 09:00N 35°60' W 006°41'816.1
2017-Oct-15 08:30N 36°02' W 006°51'916.4
2017-Oct-15 07:58N 36°04' W 007°01'816.8
2017-Oct-15 07:30N 36°06' W 007°11'816.8
2017-Oct-15 07:00N 36°08' W 007°21'816.8
2017-Oct-15 06:30N 36°11' W 007°31'917.0
2017-Oct-15 06:00N 36°13' W 007°41'816.5
2017-Oct-15 05:30N 36°15' W 007°51'816.7
2017-Oct-15 05:00N 36°17' W 008°01'816.8
2017-Oct-15 04:30N 36°20' W 008°11'1017.1
2017-Oct-15 03:57N 36°22' W 008°22'817.1
2017-Oct-15 03:31N 36°24' W 008°31'917.5
2017-Oct-15 03:00N 36°26' W 008°42'917.5
2017-Oct-15 02:30N 36°29' W 008°52'917.6
2017-Oct-15 02:00N 36°31' W 009°03'918.3
2017-Oct-15 01:30N 36°34' W 009°14'917.7
2017-Oct-15 01:01N 36°39' W 009°22'917.3
2017-Oct-15 00:30N 36°45' W 009°30'816.9
2017-Oct-15 00:00N 36°53' W 009°35'917.5
2017-Oct-14 23:30N 37°01' W 009°39'917.4
2017-Oct-14 23:00N 37°09' W 009°41'917.4
2017-Oct-14 22:30N 37°18' W 009°44'917.2
2017-Oct-14 22:00N 37°26' W 009°46'917.1
2017-Oct-14 21:30N 37°35' W 009°48'917.2
2017-Oct-14 21:00N 37°43' W 009°49'917.3
2017-Oct-14 20:30N 37°52' W 009°52'917.6
2017-Oct-14 20:00N 38°00' W 009°54'917.5
2017-Oct-14 19:30N 38°09' W 009°57'917.6
2017-Oct-14 19:00N 38°17' W 010°00'917.5
2017-Oct-14 18:30N 38°26' W 010°03'917.6
2017-Oct-14 18:00N 38°34' W 010°05'917.4
2017-Oct-14 17:30N 38°43' W 010°07'817.0
2017-Oct-14 17:00N 38°51' W 010°07'917.1
2017-Oct-14 16:30N 38°60' W 010°07'917.5
2017-Oct-14 16:00N 39°09' W 010°06'917.5
2017-Oct-14 15:30N 39°17' W 010°06'917.3
2017-Oct-14 15:00N 39°26' W 010°06'917.5
2017-Oct-14 14:30N 39°35' W 010°06'917.3
2017-Oct-14 14:00N 39°43' W 010°07'3217.4
2017-Oct-14 12:11N 40°15' W 010°08'518.0
2017-Oct-14 11:55N 40°20' W 010°07'1417.8
2017-Oct-14 11:09N 40°34' W 010°07'317.6
2017-Oct-14 10:58N 40°37' W 010°07'817.8
2017-Oct-14 10:30N 40°45' W 010°07'3817.8
2017-Oct-14 08:22N 41°23' W 010°07'720.0
2017-Oct-14 08:00N 41°30' W 010°06'1019.8
2017-Oct-14 07:30N 41°40' W 010°06'1019.3
2017-Oct-14 06:58N 41°50' W 010°07'6717.5
2017-Oct-14 03:09N 42°58' W 010°07'317.5
2017-Oct-14 02:59N 43°00' W 010°07'38117.6
2017-Oct-13 05:18N 48°40' W 005°60'617.6
2017-Oct-13 04:59N 48°45' W 005°56'917.7
2017-Oct-13 04:29N 48°53' W 005°50'1117.5
2017-Oct-13 03:51N 48°59' W 005°36'617.7
2017-Oct-13 03:30N 49°03' W 005°28'917.7
2017-Oct-13 03:00N 49°07' W 005°16'1117.6
2017-Oct-13 02:23N 49°12' W 005°01'717.4
2017-Oct-13 01:59N 49°15' W 004°52'917.3
2017-Oct-13 01:29N 49°20' W 004°41'917.0
2017-Oct-13 00:57N 49°24' W 004°29'816.7
2017-Oct-13 00:30N 49°28' W 004°18'1016.5
2017-Oct-12 23:54N 49°33' W 004°06'616.2
2017-Oct-12 23:30N 49°36' W 003°57'816.3
2017-Oct-12 22:59N 49°40' W 003°46'816.4
2017-Oct-12 22:30N 49°44' W 003°35'816.4
2017-Oct-12 22:00N 49°48' W 003°24'816.8
2017-Oct-12 21:30N 49°53' W 003°13'917.2
2017-Oct-12 21:00N 49°56' W 003°01'917.9
2017-Oct-12 20:30N 49°60' W 002°48'1118.7
2017-Oct-12 19:56N 50°04' W 002°33'919.4
2017-Oct-12 19:28N 50°07' W 002°20'1319.8
2017-Oct-12 18:49N 50°11' W 002°00'620.1
2017-Oct-12 18:30N 50°14' W 001°51'1020.0
2017-Oct-12 18:00N 50°17' W 001°37'1019.8
2017-Oct-12 17:30N 50°21' W 001°22'918.5
2017-Oct-12 17:00N 50°26' W 001°10'918.6
2017-Oct-12 16:30N 50°34' W 001°02'713.8
2017-Oct-12 16:00N 50°39' W 000°56'611.2
2017-Oct-12 15:30N 50°43' W 001°02'816.8
2017-Oct-12 15:01N 50°46' W 001°15'5 9.1
2017-Oct-12 14:30N 50°50' W 001°19'4 8.7
2017-Oct-12 14:01N 50°53' W 001°24'2 4.7
2017-Oct-12 13:30N 50°54' W 001°27'1 0.1
2017-Oct-12 08:55N 50°54' W 001°28'0 0.0
2017-Oct-12 08:30N 50°54' W 001°28'0 0.0
2017-Oct-12 07:56N 50°54' W 001°28'0 0.0
2017-Oct-12 07:26N 50°54' W 001°28'0 0.0
2017-Oct-12 06:47N 50°54' W 001°28'0 0.0
2017-Oct-12 06:29N 50°54' W 001°28'0 0.0
2017-Oct-12 05:56N 50°54' W 001°28'0 0.0
2017-Oct-12 05:26N 50°54' W 001°28'0 0.0
2017-Oct-12 04:38N 50°54' W 001°28'0 0.0
2017-Oct-12 04:26N 50°54' W 001°28'0 0.0
2017-Oct-12 03:59N 50°54' W 001°28'0 0.0
2017-Oct-12 03:11N 50°54' W 001°28'0 0.0
2017-Oct-12 02:05N 50°54' W 001°28'0 0.0
2017-Oct-12 01:41N 50°54' W 001°28'0 0.0
2017-Oct-12 01:29N 50°54' W 001°28'0 0.0
2017-Oct-12 00:59N 50°54' W 001°27'0 0.0
2017-Oct-12 00:29N 50°54' W 001°28'0 0.0
2017-Oct-11 23:59N 50°54' W 001°28'0 0.0
2017-Oct-11 23:29N 50°54' W 001°27'0 0.0
2017-Oct-11 21:56N 50°54' W 001°28'0 0.0
2017-Oct-11 21:29N 50°54' W 001°28'0 0.0
2017-Oct-11 20:59N 50°54' W 001°28'0 0.0
2017-Oct-11 20:29N 50°54' W 001°28'0 0.0
2017-Oct-11 19:59N 50°54' W 001°28'0 0.0
2017-Oct-11 19:29N 50°54' W 001°28'0 0.0
2017-Oct-11 18:44N 50°54' W 001°28'0 0.0
2017-Oct-11 18:14N 50°54' W 001°28'0 0.0
2017-Oct-11 17:59N 50°54' W 001°28'0 0.0
2017-Oct-11 17:29N 50°54' W 001°28'0 0.0
2017-Oct-11 16:59N 50°54' W 001°28'96 5.7
2017-Oct-11 00:01N 50°49' E 001°04'4 7.2
2017-Oct-10 23:30N 50°51' E 001°09'4 8.0
2017-Oct-10 23:00N 50°53' E 001°14'5 9.1
2017-Oct-10 22:31N 50°56' E 001°20'5 9.5
2017-Oct-10 22:00N 50°60' E 001°25'5 9.3
2017-Oct-10 21:31N 51°03' E 001°31'5 9.2
2017-Oct-10 21:01N 51°06' E 001°36'4 7.8
2017-Oct-10 20:31N 51°10' E 001°39'4 7.0
2017-Oct-10 20:01N 51°13' E 001°40'3 6.4
2017-Oct-10 19:31N 51°16' E 001°41'3 5.8
2017-Oct-10 19:01N 51°19' E 001°42'3 5.3
2017-Oct-10 18:31N 51°22' E 001°43'3 5.2
2017-Oct-10 18:01N 51°24' E 001°45'3 5.2
2017-Oct-10 17:30N 51°27' E 001°45'3 5.4
2017-Oct-10 17:01N 51°29' E 001°46'3 5.5
2017-Oct-10 16:31N 51°32' E 001°47'3 5.9
2017-Oct-10 16:00N 51°35' E 001°46'3 6.5
2017-Oct-10 15:31N 51°38' E 001°46'3 6.7
2017-Oct-10 15:00N 51°42' E 001°45'7 7.2
2017-Oct-10 14:01N 51°49' E 001°44'3 6.8
2017-Oct-10 13:31N 51°51' E 001°40'4 7.3
2017-Oct-10 13:01N 51°52' E 001°35'510.9
2017-Oct-10 12:30N 51°56' E 001°29'612.9
2017-Oct-10 12:00N 51°56' E 001°19'2 3.6
2017-Oct-10 11:30N 51°58' E 001°17'0 0.0
2017-Oct-10 11:00N 51°58' E 001°17'0 0.0
2017-Oct-10 10:30N 51°58' E 001°17'0 0.0
2017-Oct-10 10:00N 51°58' E 001°17'0 0.0
2017-Oct-10 09:30N 51°58' E 001°17'0 0.0
2017-Oct-10 09:00N 51°58' E 001°17'0 0.0
2017-Oct-10 08:27N 51°58' E 001°17'0 0.0
2017-Oct-10 08:00N 51°58' E 001°17'0 0.0
2017-Oct-10 07:30N 51°58' E 001°17'0 0.0
2017-Oct-10 07:00N 51°58' E 001°17'0 0.0
2017-Oct-10 06:30N 51°58' E 001°17'0 0.0
2017-Oct-10 06:00N 51°58' E 001°17'0 0.0
2017-Oct-10 05:30N 51°58' E 001°17'0 0.0
2017-Oct-10 05:00N 51°58' E 001°17'0 0.0
2017-Oct-10 04:30N 51°58' E 001°17'0 0.0
2017-Oct-10 04:00N 51°58' E 001°17'0 0.0
2017-Oct-10 03:30N 51°58' E 001°17'0 0.0
2017-Oct-10 03:00N 51°58' E 001°17'0 0.0
2017-Oct-10 02:30N 51°58' E 001°17'0 0.0
2017-Oct-10 02:00N 51°58' E 001°17'0 0.0
2017-Oct-10 01:30N 51°58' E 001°17'0 0.0
2017-Oct-10 01:00N 51°58' E 001°17'0 0.0
2017-Oct-10 00:30N 51°58' E 001°17'0 0.0
2017-Oct-10 00:00N 51°58' E 001°17'0 0.0
2017-Oct-09 23:30N 51°58' E 001°17'0 0.0
2017-Oct-09 23:00N 51°58' E 001°17'0 0.0
2017-Oct-09 22:30N 51°58' E 001°17'0 0.0
2017-Oct-09 22:00N 51°58' E 001°17'0 0.0
2017-Oct-09 21:30N 51°58' E 001°17'0 0.0
2017-Oct-09 21:00N 51°58' E 001°17'0 0.0
2017-Oct-09 20:30N 51°58' E 001°17'0 0.0
2017-Oct-09 20:00N 51°58' E 001°17'0 0.0
2017-Oct-09 19:30N 51°58' E 001°17'0 0.0
2017-Oct-09 19:00N 51°58' E 001°17'0 0.0
2017-Oct-09 18:24N 51°58' E 001°17'0 0.0
2017-Oct-09 18:00N 51°58' E 001°17'0 0.0
2017-Oct-09 17:30N 51°58' E 001°17'0 0.0
2017-Oct-09 17:00N 51°58' E 001°17'0 0.0
2017-Oct-09 16:30N 51°58' E 001°17'0 0.0
2017-Oct-09 16:00N 51°58' E 001°17'0 0.0
2017-Oct-09 15:30N 51°58' E 001°17'0 0.0
2017-Oct-09 15:00N 51°58' E 001°17'0 0.0
2017-Oct-09 14:30N 51°58' E 001°17'0 0.0
2017-Oct-09 14:00N 51°58' E 001°17'0 0.0
2017-Oct-09 13:30N 51°58' E 001°17'0 0.0
2017-Oct-09 13:00N 51°58' E 001°17'0 0.0
2017-Oct-09 12:30N 51°58' E 001°17'0 0.0
2017-Oct-09 12:00N 51°58' E 001°17'0 0.0
2017-Oct-09 11:27N 51°58' E 001°17'0 0.0
2017-Oct-09 11:00N 51°58' E 001°17'0 0.0
2017-Oct-09 10:30N 51°58' E 001°17'0 0.0
2017-Oct-09 10:00N 51°58' E 001°17'0 0.0
2017-Oct-09 09:30N 51°58' E 001°17'0 0.0
2017-Oct-09 09:00N 51°58' E 001°17'0 0.0
2017-Oct-09 08:30N 51°58' E 001°17'0 0.0
2017-Oct-09 08:00N 51°58' E 001°17'0 0.0
2017-Oct-09 07:30N 51°58' E 001°17'0 0.0
2017-Oct-09 07:00N 51°58' E 001°17'0 0.0
2017-Oct-09 06:30N 51°58' E 001°17'0 0.9
2017-Oct-09 06:00N 51°58' E 001°18'1 1.4
2017-Oct-09 05:30N 51°57' E 001°18'3 5.8
2017-Oct-09 05:00N 51°56' E 001°23'713.6
2017-Oct-09 04:31N 51°55' E 001°34'4 8.7
2017-Oct-09 04:01N 51°52' E 001°39'2 4.7
2017-Oct-09 03:31N 51°54' E 001°41'0 0.3
2017-Oct-09 02:59N 51°54' E 001°41'0 0.0
2017-Oct-09 02:29N 51°54' E 001°41'0 0.1
2017-Oct-09 01:59N 51°54' E 001°41'0 0.3
2017-Oct-09 01:29N 51°54' E 001°41'0 0.1
2017-Oct-09 00:59N 51°54' E 001°41'0 0.0
2017-Oct-09 00:29N 51°54' E 001°41'0 0.0
2017-Oct-08 23:59N 51°54' E 001°41'0 0.0
2017-Oct-08 23:29N 51°54' E 001°41'0 0.0
2017-Oct-08 22:59N 51°54' E 001°41'0 0.0
2017-Oct-08 22:29N 51°54' E 001°41'0 0.0
2017-Oct-08 21:59N 51°54' E 001°41'0 0.0
2017-Oct-08 21:29N 51°54' E 001°41'0 0.0
2017-Oct-08 20:59N 51°54' E 001°41'0 0.0
2017-Oct-08 20:29N 51°54' E 001°41'0 0.2
2017-Oct-08 19:59N 51°54' E 001°41'0 0.3
2017-Oct-08 19:29N 51°54' E 001°41'0 0.1
2017-Oct-08 18:59N 51°54' E 001°41'0 0.0
2017-Oct-08 18:29N 51°54' E 001°41'0 0.0
2017-Oct-08 17:59N 51°54' E 001°41'0 0.0
2017-Oct-08 17:29N 51°54' E 001°41'0 0.0
2017-Oct-08 16:59N 51°54' E 001°41'0 0.0
2017-Oct-08 16:29N 51°54' E 001°41'0 0.0
2017-Oct-08 15:59N 51°54' E 001°41'0 0.0
2017-Oct-08 15:29N 51°54' E 001°41'0 0.0
2017-Oct-08 14:59N 51°54' E 001°41'0 0.6
2017-Oct-08 14:30N 51°54' E 001°41'5 9.8
2017-Oct-08 14:00N 51°52' E 001°48'510.1
2017-Oct-08 13:30N 51°51' E 001°56'611.6
2017-Oct-08 13:00N 51°53' E 002°04'5211.8
2017-Oct-08 08:35N 52°04' E 003°27'210.7
2017-Oct-08 08:25N 52°04' E 003°30'410.7
2017-Oct-08 08:00N 52°04' E 003°37'510.5
2017-Oct-08 07:30N 52°04' E 003°46'510.7
2017-Oct-08 07:00N 52°03' E 003°55'3 6.5
2017-Oct-08 06:30N 52°01' E 003°58'510.4
2017-Oct-08 06:00N 51°58' E 004°05'1 2.9
2017-Oct-08 05:30N 51°58' E 004°03'1 1.0
2017-Oct-08 04:58N 51°58' E 004°02'0 0.0
2017-Oct-08 04:28N 51°58' E 004°02'0 0.0
2017-Oct-08 03:58N 51°58' E 004°02'0 0.0
2017-Oct-08 03:28N 51°58' E 004°02'0 0.0
2017-Oct-08 02:58N 51°58' E 004°02'0 0.0
2017-Oct-08 02:28N 51°58' E 004°02'0 0.0
2017-Oct-08 01:58N 51°58' E 004°02'0 0.0
2017-Oct-08 01:25N 51°58' E 004°02'0 0.0
2017-Oct-08 00:58N 51°58' E 004°02'0 0.0
2017-Oct-08 00:28N 51°58' E 004°02'0 0.0
2017-Oct-07 23:58N 51°58' E 004°02'0 0.0
2017-Oct-07 23:28N 51°58' E 004°02'0 0.0
2017-Oct-07 22:58N 51°58' E 004°02'0 0.0
2017-Oct-07 22:28N 51°58' E 004°02'0 0.1
2017-Oct-07 21:58N 51°58' E 004°02'0 0.0
2017-Oct-07 21:25N 51°58' E 004°02'0 0.0
2017-Oct-07 20:58N 51°58' E 004°02'0 0.0
2017-Oct-07 20:28N 51°58' E 004°02'0 0.0
2017-Oct-07 19:55N 51°58' E 004°02'0 0.0
2017-Oct-07 19:25N 51°58' E 004°02'0 0.0
2017-Oct-07 18:58N 51°58' E 004°02'0 0.0
2017-Oct-07 18:28N 51°58' E 004°02'0 0.0
2017-Oct-07 17:58N 51°58' E 004°02'0 0.0
2017-Oct-07 17:28N 51°58' E 004°02'0 0.0
2017-Oct-07 16:58N 51°58' E 004°02'0 0.0
2017-Oct-07 16:28N 51°58' E 004°02'0 0.0
2017-Oct-07 15:58N 51°58' E 004°02'0 0.0
2017-Oct-07 15:28N 51°58' E 004°02'0 0.0
2017-Oct-07 14:58N 51°58' E 004°02'0 0.0
2017-Oct-07 14:25N 51°58' E 004°02'0 0.0
2017-Oct-07 13:58N 51°58' E 004°02'0 0.0
2017-Oct-07 13:25N 51°58' E 004°02'0 0.0
2017-Oct-07 12:52N 51°58' E 004°02'0 0.0
2017-Oct-07 12:25N 51°58' E 004°02'0 0.0
2017-Oct-07 11:58N 51°58' E 004°02'0 0.0
2017-Oct-07 11:28N 51°58' E 004°02'0 0.0
2017-Oct-07 10:55N 51°58' E 004°02'0 0.0
2017-Oct-07 10:28N 51°58' E 004°02'0 0.0
2017-Oct-07 09:58N 51°58' E 004°02'0 0.0
2017-Oct-07 09:28N 51°58' E 004°02'0 0.0
2017-Oct-07 08:58N 51°58' E 004°02'0 0.0
2017-Oct-07 08:25N 51°58' E 004°02'0 0.0
2017-Oct-07 07:58N 51°58' E 004°02'0 0.0
2017-Oct-07 07:28N 51°58' E 004°02'0 0.0
2017-Oct-07 06:58N 51°58' E 004°02'0 0.0
2017-Oct-07 06:28N 51°58' E 004°02'0 0.0
2017-Oct-07 05:58N 51°58' E 004°02'0 0.0
2017-Oct-07 05:28N 51°58' E 004°02'0 0.0
2017-Oct-07 04:58N 51°58' E 004°02'0 0.0
2017-Oct-07 04:19N 51°58' E 004°02'0 0.0
2017-Oct-07 03:58N 51°58' E 004°02'0 0.0
2017-Oct-07 03:25N 51°58' E 004°02'0 0.0
2017-Oct-07 02:58N 51°58' E 004°02'0 0.0
2017-Oct-07 02:28N 51°58' E 004°02'0 0.0
2017-Oct-07 01:58N 51°58' E 004°02'0 0.0
2017-Oct-07 01:28N 51°58' E 004°02'0 0.0
2017-Oct-07 00:58N 51°58' E 004°02'0 0.0
2017-Oct-07 00:28N 51°58' E 004°02'0 0.0
2017-Oct-06 23:58N 51°58' E 004°02'0 0.0
2017-Oct-06 23:28N 51°58' E 004°02'0 0.0
2017-Oct-06 22:58N 51°58' E 004°02'0 0.0
2017-Oct-06 22:28N 51°58' E 004°02'0 0.0
2017-Oct-06 21:58N 51°58' E 004°02'0 0.0
2017-Oct-06 21:28N 51°58' E 004°02'0 0.0
2017-Oct-06 20:55N 51°58' E 004°02'0 0.0
2017-Oct-06 20:28N 51°58' E 004°02'0 0.0
2017-Oct-06 19:58N 51°58' E 004°02'0 0.0
2017-Oct-06 19:28N 51°58' E 004°02'0 0.0
2017-Oct-06 18:58N 51°58' E 004°02'0 0.0
2017-Oct-06 18:28N 51°58' E 004°02'0 0.0
2017-Oct-06 17:58N 51°58' E 004°02'0 0.0
2017-Oct-06 17:25N 51°58' E 004°02'0 0.0
2017-Oct-06 16:55N 51°58' E 004°02'0 0.0
2017-Oct-06 16:28N 51°58' E 004°02'0 0.0
2017-Oct-06 15:58N 51°58' E 004°02'0 0.0
2017-Oct-06 15:25N 51°58' E 004°02'0 0.0
2017-Oct-06 14:58N 51°58' E 004°02'0 0.0
2017-Oct-06 14:28N 51°58' E 004°02'0 0.0
2017-Oct-06 13:58N 51°58' E 004°02'0 0.0
2017-Oct-06 13:28N 51°58' E 004°02'0 0.0
2017-Oct-06 12:58N 51°58' E 004°02'  
Track history (hours):
 
Tides and Currents Weather Stations Pressure Air Temp Water Temp Dewpoint Dewpoint Depression Visibility Wind Speed Wind Dir Waves Ship Positions

CSCL Star

Last reported at 2017-Oct-16 12:34 UTC. Time now 2017-Oct-16 22:47 UTC.
Position N 37°05' E 003°13'.

Length 366 m; draft 14.5 m.

Type: Ship (hazmat cat A). MMSI: 477963800.

Date/timePositionNaut miles runAvg speedWind from/ knotsBaromVisibWave heightAir tempDewpointWater temp
2017-Oct-16 12:34N 37°05' E 003°13'1318.2
2017-Oct-16 11:51N 37°04' E 002°57'618.1
2017-Oct-16 11:30N 37°02' E 002°50'1318.2
2017-Oct-16 10:48N 36°59' E 002°34'518.2
2017-Oct-16 10:30N 36°58' E 002°28'918.1
2017-Oct-16 10:00N 36°55' E 002°17'918.3
2017-Oct-16 09:30N 36°53' E 002°06'918.3
2017-Oct-16 09:00N 36°51' E 001°55'918.3
2017-Oct-16 08:30N 36°48' E 001°44'918.2
2017-Oct-16 08:00N 36°45' E 001°33'918.1
2017-Oct-16 07:30N 36°43' E 001°22'1017.7
2017-Oct-16 06:56N 36°40' E 001°10'9017.6
2017-Oct-16 01:50N 36°22' W 000°39'717.2
2017-Oct-16 01:27N 36°21' W 000°47'2717.5
2017-Oct-15 23:53N 36°18' W 001°21'17417.6
2017-Oct-15 14:00N 36°00' W 004°55'918.1
2017-Oct-15 13:30N 35°59' W 005°06'918.0
2017-Oct-15 13:00N 35°58' W 005°17'917.8
2017-Oct-15 12:30N 35°57' W 005°28'1117.9
2017-Oct-15 11:55N 35°54' W 005°41'818.1
2017-Oct-15 11:29N 35°54' W 005°50'917.6
2017-Oct-15 11:00N 35°54' W 006°01'917.1
2017-Oct-15 10:30N 35°54' W 006°11'816.9
2017-Oct-15 10:01N 35°56' W 006°21'816.7
2017-Oct-15 09:30N 35°57' W 006°32'816.2
2017-Oct-15 09:00N 35°60' W 006°41'816.1
2017-Oct-15 08:30N 36°02' W 006°51'916.4
2017-Oct-15 07:58N 36°04' W 007°01'816.8
2017-Oct-15 07:30N 36°06' W 007°11'816.8
2017-Oct-15 07:00N 36°08' W 007°21'816.8
2017-Oct-15 06:30N 36°11' W 007°31'917.0
2017-Oct-15 06:00N 36°13' W 007°41'816.5
2017-Oct-15 05:30N 36°15' W 007°51'816.7
2017-Oct-15 05:00N 36°17' W 008°01'816.8
2017-Oct-15 04:30N 36°20' W 008°11'1017.1
2017-Oct-15 03:57N 36°22' W 008°22'817.1
2017-Oct-15 03:31N 36°24' W 008°31'917.5
2017-Oct-15 03:00N 36°26' W 008°42'917.5
2017-Oct-15 02:30N 36°29' W 008°52'917.6
2017-Oct-15 02:00N 36°31' W 009°03'918.3
2017-Oct-15 01:30N 36°34' W 009°14'917.7
2017-Oct-15 01:01N 36°39' W 009°22'917.3
2017-Oct-15 00:30N 36°45' W 009°30'816.9
2017-Oct-15 00:00N 36°53' W 009°35'917.5
2017-Oct-14 23:30N 37°01' W 009°39'917.4
2017-Oct-14 23:00N 37°09' W 009°41'917.4
2017-Oct-14 22:30N 37°18' W 009°44'917.2
2017-Oct-14 22:00N 37°26' W 009°46'917.1
2017-Oct-14 21:30N 37°35' W 009°48'917.2
2017-Oct-14 21:00N 37°43' W 009°49'917.3
2017-Oct-14 20:30N 37°52' W 009°52'917.6
2017-Oct-14 20:00N 38°00' W 009°54'917.5
2017-Oct-14 19:30N 38°09' W 009°57'917.6
2017-Oct-14 19:00N 38°17' W 010°00'917.5
2017-Oct-14 18:30N 38°26' W 010°03'917.6
2017-Oct-14 18:00N 38°34' W 010°05'917.4
2017-Oct-14 17:30N 38°43' W 010°07'817.0
2017-Oct-14 17:00N 38°51' W 010°07'917.1
2017-Oct-14 16:30N 38°60' W 010°07'917.5
2017-Oct-14 16:00N 39°09' W 010°06'917.5
2017-Oct-14 15:30N 39°17' W 010°06'917.3
2017-Oct-14 15:00N 39°26' W 010°06'917.5
2017-Oct-14 14:30N 39°35' W 010°06'917.3
2017-Oct-14 14:00N 39°43' W 010°07'3217.4
2017-Oct-14 12:11N 40°15' W 010°08'518.0
2017-Oct-14 11:55N 40°20' W 010°07'1417.8
2017-Oct-14 11:09N 40°34' W 010°07'317.6
2017-Oct-14 10:58N 40°37' W 010°07'817.8
2017-Oct-14 10:30N 40°45' W 010°07'3817.8
2017-Oct-14 08:22N 41°23' W 010°07'720.0
2017-Oct-14 08:00N 41°30' W 010°06'1019.8
2017-Oct-14 07:30N 41°40' W 010°06'1019.3
2017-Oct-14 06:58N 41°50' W 010°07'6717.5
2017-Oct-14 03:09N 42°58' W 010°07'317.5
2017-Oct-14 02:59N 43°00' W 010°07'38117.6
2017-Oct-13 05:18N 48°40' W 005°60'617.6
2017-Oct-13 04:59N 48°45' W 005°56'917.7
2017-Oct-13 04:29N 48°53' W 005°50'1117.5
2017-Oct-13 03:51N 48°59' W 005°36'617.7
2017-Oct-13 03:30N 49°03' W 005°28'917.7
2017-Oct-13 03:00N 49°07' W 005°16'1117.6
2017-Oct-13 02:23N 49°12' W 005°01'717.4
2017-Oct-13 01:59N 49°15' W 004°52'917.3
2017-Oct-13 01:29N 49°20' W 004°41'917.0
2017-Oct-13 00:57N 49°24' W 004°29'816.7
2017-Oct-13 00:30N 49°28' W 004°18'1016.5
2017-Oct-12 23:54N 49°33' W 004°06'616.2
2017-Oct-12 23:30N 49°36' W 003°57'816.3
2017-Oct-12 22:59N 49°40' W 003°46'816.4
2017-Oct-12 22:30N 49°44' W 003°35'816.4
2017-Oct-12 22:00N 49°48' W 003°24'816.8
2017-Oct-12 21:30N 49°53' W 003°13'917.2
2017-Oct-12 21:00N 49°56' W 003°01'917.9
2017-Oct-12 20:30N 49°60' W 002°48'1118.7
2017-Oct-12 19:56N 50°04' W 002°33'919.4
2017-Oct-12 19:28N 50°07' W 002°20'1319.8
2017-Oct-12 18:49N 50°11' W 002°00'620.1
2017-Oct-12 18:30N 50°14' W 001°51'1020.0
2017-Oct-12 18:00N 50°17' W 001°37'1019.8
2017-Oct-12 17:30N 50°21' W 001°22'918.5
2017-Oct-12 17:00N 50°26' W 001°10'918.6
2017-Oct-12 16:30N 50°34' W 001°02'713.8
2017-Oct-12 16:00N 50°39' W 000°56'611.2
2017-Oct-12 15:30N 50°43' W 001°02'816.8
2017-Oct-12 15:01N 50°46' W 001°15'5 9.1
2017-Oct-12 14:30N 50°50' W 001°19'4 8.7
2017-Oct-12 14:01N 50°53' W 001°24'2 4.7
2017-Oct-12 13:30N 50°54' W 001°27'1 0.1
2017-Oct-12 08:55N 50°54' W 001°28'0 0.0
2017-Oct-12 08:30N 50°54' W 001°28'0 0.0
2017-Oct-12 07:56N 50°54' W 001°28'0 0.0
2017-Oct-12 07:26N 50°54' W 001°28'0 0.0
2017-Oct-12 06:47N 50°54' W 001°28'0 0.0
2017-Oct-12 06:29N 50°54' W 001°28'0 0.0
2017-Oct-12 05:56N 50°54' W 001°28'0 0.0
2017-Oct-12 05:26N 50°54' W 001°28'0 0.0
2017-Oct-12 04:38N 50°54' W 001°28'0 0.0
2017-Oct-12 04:26N 50°54' W 001°28'0 0.0
2017-Oct-12 03:59N 50°54' W 001°28'0 0.0
2017-Oct-12 03:11N 50°54' W 001°28'0 0.0
2017-Oct-12 02:05N 50°54' W 001°28'0 0.0
2017-Oct-12 01:41N 50°54' W 001°28'0 0.0
2017-Oct-12 01:29N 50°54' W 001°28'0 0.0
2017-Oct-12 00:59N 50°54' W 001°27'0 0.0
2017-Oct-12 00:29N 50°54' W 001°28'0 0.0
2017-Oct-11 23:59N 50°54' W 001°28'0 0.0
2017-Oct-11 23:29N 50°54' W 001°27'0 0.0
2017-Oct-11 21:56N 50°54' W 001°28'0 0.0
2017-Oct-11 21:29N 50°54' W 001°28'0 0.0
2017-Oct-11 20:59N 50°54' W 001°28'0 0.0
2017-Oct-11 20:29N 50°54' W 001°28'0 0.0
2017-Oct-11 19:59N 50°54' W 001°28'0 0.0
2017-Oct-11 19:29N 50°54' W 001°28'0 0.0
2017-Oct-11 18:44N 50°54' W 001°28'0 0.0
2017-Oct-11 18:14N 50°54' W 001°28'0 0.0
2017-Oct-11 17:59N 50°54' W 001°28'0 0.0
2017-Oct-11 17:29N 50°54' W 001°28'0 0.0
2017-Oct-11 16:59N 50°54' W 001°28'96 5.7
2017-Oct-11 00:01N 50°49' E 001°04'4 7.2
2017-Oct-10 23:30N 50°51' E 001°09'4 8.0
2017-Oct-10 23:00N 50°53' E 001°14'5 9.1
2017-Oct-10 22:31N 50°56' E 001°20'5 9.5
2017-Oct-10 22:00N 50°60' E 001°25'5 9.3
2017-Oct-10 21:31N 51°03' E 001°31'5 9.2
2017-Oct-10 21:01N 51°06' E 001°36'4 7.8
2017-Oct-10 20:31N 51°10' E 001°39'4 7.0
2017-Oct-10 20:01N 51°13' E 001°40'3 6.4
2017-Oct-10 19:31N 51°16' E 001°41'3 5.8
2017-Oct-10 19:01N 51°19' E 001°42'3 5.3
2017-Oct-10 18:31N 51°22' E 001°43'3 5.2
2017-Oct-10 18:01N 51°24' E 001°45'3 5.2
2017-Oct-10 17:30N 51°27' E 001°45'3 5.4
2017-Oct-10 17:01N 51°29' E 001°46'3 5.5
2017-Oct-10 16:31N 51°32' E 001°47'3 5.9
2017-Oct-10 16:00N 51°35' E 001°46'3 6.5
2017-Oct-10 15:31N 51°38' E 001°46'3 6.7
2017-Oct-10 15:00N 51°42' E 001°45'7 7.2
2017-Oct-10 14:01N 51°49' E 001°44'3 6.8
2017-Oct-10 13:31N 51°51' E 001°40'4 7.3
2017-Oct-10 13:01N 51°52' E 001°35'510.9
2017-Oct-10 12:30N 51°56' E 001°29'612.9
2017-Oct-10 12:00N 51°56' E 001°19'2 3.6
2017-Oct-10 11:30N 51°58' E 001°17'0 0.0
2017-Oct-10 11:00N 51°58' E 001°17'0 0.0
2017-Oct-10 10:30N 51°58' E 001°17'0 0.0
2017-Oct-10 10:00N 51°58' E 001°17'0 0.0
2017-Oct-10 09:30N 51°58' E 001°17'0 0.0
2017-Oct-10 09:00N 51°58' E 001°17'0 0.0
2017-Oct-10 08:27N 51°58' E 001°17'0 0.0
2017-Oct-10 08:00N 51°58' E 001°17'0 0.0
2017-Oct-10 07:30N 51°58' E 001°17'0 0.0
2017-Oct-10 07:00N 51°58' E 001°17'0 0.0
2017-Oct-10 06:30N 51°58' E 001°17'0 0.0
2017-Oct-10 06:00N 51°58' E 001°17'0 0.0
2017-Oct-10 05:30N 51°58' E 001°17'0 0.0
2017-Oct-10 05:00N 51°58' E 001°17'0 0.0
2017-Oct-10 04:30N 51°58' E 001°17'0 0.0
2017-Oct-10 04:00N 51°58' E 001°17'0 0.0
2017-Oct-10 03:30N 51°58' E 001°17'0 0.0
2017-Oct-10 03:00N 51°58' E 001°17'0 0.0
2017-Oct-10 02:30N 51°58' E 001°17'0 0.0
2017-Oct-10 02:00N 51°58' E 001°17'0 0.0
2017-Oct-10 01:30N 51°58' E 001°17'0 0.0
2017-Oct-10 01:00N 51°58' E 001°17'0 0.0
2017-Oct-10 00:30N 51°58' E 001°17'0 0.0
2017-Oct-10 00:00N 51°58' E 001°17'0 0.0
2017-Oct-09 23:30N 51°58' E 001°17'0 0.0
2017-Oct-09 23:00N 51°58' E 001°17'0 0.0
2017-Oct-09 22:30N 51°58' E 001°17'0 0.0
2017-Oct-09 22:00N 51°58' E 001°17'0 0.0
2017-Oct-09 21:30N 51°58' E 001°17'0 0.0
2017-Oct-09 21:00N 51°58' E 001°17'0 0.0
2017-Oct-09 20:30N 51°58' E 001°17'0 0.0
2017-Oct-09 20:00N 51°58' E 001°17'0 0.0
2017-Oct-09 19:30N 51°58' E 001°17'0 0.0
2017-Oct-09 19:00N 51°58' E 001°17'0 0.0
2017-Oct-09 18:24N 51°58' E 001°17'0 0.0
2017-Oct-09 18:00N 51°58' E 001°17'0 0.0
2017-Oct-09 17:30N 51°58' E 001°17'0 0.0
2017-Oct-09 17:00N 51°58' E 001°17'0 0.0
2017-Oct-09 16:30N 51°58' E 001°17'0 0.0
2017-Oct-09 16:00N 51°58' E 001°17'0 0.0
2017-Oct-09 15:30N 51°58' E 001°17'0 0.0
2017-Oct-09 15:00N 51°58' E 001°17'0 0.0
2017-Oct-09 14:30N 51°58' E 001°17'0 0.0
2017-Oct-09 14:00N 51°58' E 001°17'0 0.0
2017-Oct-09 13:30N 51°58' E 001°17'0 0.0
2017-Oct-09 13:00N 51°58' E 001°17'0 0.0
2017-Oct-09 12:30N 51°58' E 001°17'0 0.0
2017-Oct-09 12:00N 51°58' E 001°17'0 0.0
2017-Oct-09 11:27N 51°58' E 001°17'0 0.0
2017-Oct-09 11:00N 51°58' E 001°17'0 0.0
2017-Oct-09 10:30N 51°58' E 001°17'0 0.0
2017-Oct-09 10:00N 51°58' E 001°17'0 0.0
2017-Oct-09 09:30N 51°58' E 001°17'0 0.0
2017-Oct-09 09:00N 51°58' E 001°17'0 0.0
2017-Oct-09 08:30N 51°58' E 001°17'0 0.0
2017-Oct-09 08:00N 51°58' E 001°17'0 0.0
2017-Oct-09 07:30N 51°58' E 001°17'0 0.0
2017-Oct-09 07:00N 51°58' E 001°17'0 0.0
2017-Oct-09 06:30N 51°58' E 001°17'0 0.9
2017-Oct-09 06:00N 51°58' E 001°18'1 1.4
2017-Oct-09 05:30N 51°57' E 001°18'3 5.8
2017-Oct-09 05:00N 51°56' E 001°23'713.6
2017-Oct-09 04:31N 51°55' E 001°34'4 8.7
2017-Oct-09 04:01N 51°52' E 001°39'2 4.7
2017-Oct-09 03:31N 51°54' E 001°41'0 0.3
2017-Oct-09 02:59N 51°54' E 001°41'0 0.0
2017-Oct-09 02:29N 51°54' E 001°41'0 0.1
2017-Oct-09 01:59N 51°54' E 001°41'0 0.3
2017-Oct-09 01:29N 51°54' E 001°41'0 0.1
2017-Oct-09 00:59N 51°54' E 001°41'0 0.0
2017-Oct-09 00:29N 51°54' E 001°41'0 0.0
2017-Oct-08 23:59N 51°54' E 001°41'0 0.0
2017-Oct-08 23:29N 51°54' E 001°41'0 0.0
2017-Oct-08 22:59N 51°54' E 001°41'0 0.0
2017-Oct-08 22:29N 51°54' E 001°41'0 0.0
2017-Oct-08 21:59N 51°54' E 001°41'0 0.0
2017-Oct-08 21:29N 51°54' E 001°41'0 0.0
2017-Oct-08 20:59N 51°54' E 001°41'0 0.0
2017-Oct-08 20:29N 51°54' E 001°41'0 0.2
2017-Oct-08 19:59N 51°54' E 001°41'0 0.3
2017-Oct-08 19:29N 51°54' E 001°41'0 0.1
2017-Oct-08 18:59N 51°54' E 001°41'0 0.0
2017-Oct-08 18:29N 51°54' E 001°41'0 0.0
2017-Oct-08 17:59N 51°54' E 001°41'0 0.0
2017-Oct-08 17:29N 51°54' E 001°41'0 0.0
2017-Oct-08 16:59N 51°54' E 001°41'0 0.0
2017-Oct-08 16:29N 51°54' E 001°41'0 0.0
2017-Oct-08 15:59N 51°54' E 001°41'0 0.0
2017-Oct-08 15:29N 51°54' E 001°41'0 0.0
2017-Oct-08 14:59N 51°54' E 001°41'0 0.6
2017-Oct-08 14:30N 51°54' E 001°41'5 9.8
2017-Oct-08 14:00N 51°52' E 001°48'510.1
2017-Oct-08 13:30N 51°51' E 001°56'611.6
2017-Oct-08 13:00N 51°53' E 002°04'5211.8
2017-Oct-08 08:35N 52°04' E 003°27'210.7
2017-Oct-08 08:25N 52°04' E 003°30'410.7
2017-Oct-08 08:00N 52°04' E 003°37'510.5
2017-Oct-08 07:30N 52°04' E 003°46'510.7
2017-Oct-08 07:00N 52°03' E 003°55'3 6.5
2017-Oct-08 06:30N 52°01' E 003°58'510.4
2017-Oct-08 06:00N 51°58' E 004°05'1 2.9
2017-Oct-08 05:30N 51°58' E 004°03'1 1.0
2017-Oct-08 04:58N 51°58' E 004°02'0 0.0
2017-Oct-08 04:28N 51°58' E 004°02'0 0.0
2017-Oct-08 03:58N 51°58' E 004°02'0 0.0
2017-Oct-08 03:28N 51°58' E 004°02'0 0.0
2017-Oct-08 02:58N 51°58' E 004°02'0 0.0
2017-Oct-08 02:28N 51°58' E 004°02'0 0.0
2017-Oct-08 01:58N 51°58' E 004°02'0 0.0
2017-Oct-08 01:25N 51°58' E 004°02'0 0.0
2017-Oct-08 00:58N 51°58' E 004°02'0 0.0
2017-Oct-08 00:28N 51°58' E 004°02'0 0.0
2017-Oct-07 23:58N 51°58' E 004°02'0 0.0
2017-Oct-07 23:28N 51°58' E 004°02'0 0.0
2017-Oct-07 22:58N 51°58' E 004°02'0 0.0
2017-Oct-07 22:28N 51°58' E 004°02'0 0.1
2017-Oct-07 21:58N 51°58' E 004°02'0 0.0
2017-Oct-07 21:25N 51°58' E 004°02'0 0.0
2017-Oct-07 20:58N 51°58' E 004°02'0 0.0
2017-Oct-07 20:28N 51°58' E 004°02'0 0.0
2017-Oct-07 19:55N 51°58' E 004°02'0 0.0
2017-Oct-07 19:25N 51°58' E 004°02'0 0.0
2017-Oct-07 18:58N 51°58' E 004°02'0 0.0
2017-Oct-07 18:28N 51°58' E 004°02'0 0.0
2017-Oct-07 17:58N 51°58' E 004°02'0 0.0
2017-Oct-07 17:28N 51°58' E 004°02'0 0.0
2017-Oct-07 16:58N 51°58' E 004°02'0 0.0
2017-Oct-07 16:28N 51°58' E 004°02'0 0.0
2017-Oct-07 15:58N 51°58' E 004°02'0 0.0
2017-Oct-07 15:28N 51°58' E 004°02'0 0.0
2017-Oct-07 14:58N 51°58' E 004°02'0 0.0
2017-Oct-07 14:25N 51°58' E 004°02'0 0.0
2017-Oct-07 13:58N 51°58' E 004°02'0 0.0
2017-Oct-07 13:25N 51°58' E 004°02'0 0.0
2017-Oct-07 12:52N 51°58' E 004°02'0 0.0
2017-Oct-07 12:25N 51°58' E 004°02'0 0.0
2017-Oct-07 11:58N 51°58' E 004°02'0 0.0
2017-Oct-07 11:28N 51°58' E 004°02'0 0.0
2017-Oct-07 10:55N 51°58' E 004°02'0 0.0
2017-Oct-07 10:28N 51°58' E 004°02'0 0.0
2017-Oct-07 09:58N 51°58' E 004°02'0 0.0
2017-Oct-07 09:28N 51°58' E 004°02'0 0.0
2017-Oct-07 08:58N 51°58' E 004°02'0 0.0
2017-Oct-07 08:25N 51°58' E 004°02'0 0.0
2017-Oct-07 07:58N 51°58' E 004°02'0 0.0
2017-Oct-07 07:28N 51°58' E 004°02'0 0.0
2017-Oct-07 06:58N 51°58' E 004°02'0 0.0
2017-Oct-07 06:28N 51°58' E 004°02'0 0.0
2017-Oct-07 05:58N 51°58' E 004°02'0 0.0
2017-Oct-07 05:28N 51°58' E 004°02'0 0.0
2017-Oct-07 04:58N 51°58' E 004°02'0 0.0
2017-Oct-07 04:19N 51°58' E 004°02'0 0.0
2017-Oct-07 03:58N 51°58' E 004°02'0 0.0
2017-Oct-07 03:25N 51°58' E 004°02'0 0.0
2017-Oct-07 02:58N 51°58' E 004°02'0 0.0
2017-Oct-07 02:28N 51°58' E 004°02'0 0.0
2017-Oct-07 01:58N 51°58' E 004°02'0 0.0
2017-Oct-07 01:28N 51°58' E 004°02'0 0.0
2017-Oct-07 00:58N 51°58' E 004°02'0 0.0
2017-Oct-07 00:28N 51°58' E 004°02'0 0.0
2017-Oct-06 23:58N 51°58' E 004°02'0 0.0
2017-Oct-06 23:28N 51°58' E 004°02'0 0.0
2017-Oct-06 22:58N 51°58' E 004°02'0 0.0
2017-Oct-06 22:28N 51°58' E 004°02'0 0.0
2017-Oct-06 21:58N 51°58' E 004°02'0 0.0
2017-Oct-06 21:28N 51°58' E 004°02'0 0.0
2017-Oct-06 20:55N 51°58' E 004°02'0 0.0
2017-Oct-06 20:28N 51°58' E 004°02'0 0.0
2017-Oct-06 19:58N 51°58' E 004°02'0 0.0
2017-Oct-06 19:28N 51°58' E 004°02'0 0.0
2017-Oct-06 18:58N 51°58' E 004°02'0 0.0
2017-Oct-06 18:28N 51°58' E 004°02'0 0.0
2017-Oct-06 17:58N 51°58' E 004°02'0 0.0
2017-Oct-06 17:25N 51°58' E 004°02'0 0.0
2017-Oct-06 16:55N 51°58' E 004°02'0 0.0
2017-Oct-06 16:28N 51°58' E 004°02'0 0.0
2017-Oct-06 15:58N 51°58' E 004°02'0 0.0
2017-Oct-06 15:25N 51°58' E 004°02'0 0.0
2017-Oct-06 14:58N 51°58' E 004°02'0 0.0
2017-Oct-06 14:28N 51°58' E 004°02'0 0.0
2017-Oct-06 13:58N 51°58' E 004°02'0 0.0
2017-Oct-06 13:28N 51°58' E 004°02'0 0.0
2017-Oct-06 12:58N 51°58' E 004°02'  

Dump ship's entire track history